sensor_id;sensor_type;location;lat;lon;timestamp;P1;durP1;ratioP1;P2;durP2;ratioP2
54897;SDS011;40800;52.704;6.398;2023-02-13T00:02:15;48.22;;;43.75;;
54897;SDS011;40800;52.704;6.398;2023-02-13T00:04:40;49.85;;;45.30;;
54897;SDS011;40800;52.704;6.398;2023-02-13T00:07:09;49.72;;;45.03;;
54897;SDS011;40800;52.704;6.398;2023-02-13T00:09:36;50.83;;;46.13;;
54897;SDS011;40800;52.704;6.398;2023-02-13T00:12:02;49.28;;;44.80;;
54897;SDS011;40800;52.704;6.398;2023-02-13T00:14:29;49.58;;;44.95;;
54897;SDS011;40800;52.704;6.398;2023-02-13T00:16:54;49.38;;;44.72;;
54897;SDS011;40800;52.704;6.398;2023-02-13T00:19:20;50.80;;;46.08;;
54897;SDS011;40800;52.704;6.398;2023-02-13T00:21:46;49.63;;;44.90;;
54897;SDS011;40800;52.704;6.398;2023-02-13T00:24:11;50.42;;;45.53;;
54897;SDS011;40800;52.704;6.398;2023-02-13T00:26:37;51.63;;;46.88;;
54897;SDS011;40800;52.704;6.398;2023-02-13T00:29:04;49.13;;;44.63;;
54897;SDS011;40800;52.704;6.398;2023-02-13T00:31:30;48.88;;;44.28;;
54897;SDS011;40800;52.704;6.398;2023-02-13T00:33:55;49.60;;;45.07;;
54897;SDS011;40800;52.704;6.398;2023-02-13T00:36:21;49.97;;;45.45;;
54897;SDS011;40800;52.704;6.398;2023-02-13T00:38:48;49.78;;;45.25;;
54897;SDS011;40800;52.704;6.398;2023-02-13T00:41:14;50.13;;;45.50;;
54897;SDS011;40800;52.704;6.398;2023-02-13T00:46:07;50.10;;;45.70;;
54897;SDS011;40800;52.704;6.398;2023-02-13T00:48:33;48.67;;;44.10;;
54897;SDS011;40800;52.704;6.398;2023-02-13T00:51:00;49.83;;;45.08;;
54897;SDS011;40800;52.704;6.398;2023-02-13T00:53:26;50.92;;;46.03;;
54897;SDS011;40800;52.704;6.398;2023-02-13T00:55:52;50.65;;;45.92;;
54897;SDS011;40800;52.704;6.398;2023-02-13T00:58:18;49.83;;;45.15;;
54897;SDS011;40800;52.704;6.398;2023-02-13T01:00:44;48.75;;;44.22;;
54897;SDS011;40800;52.704;6.398;2023-02-13T01:03:11;49.17;;;44.60;;
54897;SDS011;40800;52.704;6.398;2023-02-13T01:05:38;48.22;;;43.65;;
54897;SDS011;40800;52.704;6.398;2023-02-13T01:08:03;49.17;;;44.47;;
54897;SDS011;40800;52.704;6.398;2023-02-13T01:10:30;48.73;;;44.23;;
54897;SDS011;40800;52.704;6.398;2023-02-13T01:12:55;48.45;;;44.08;;
54897;SDS011;40800;52.704;6.398;2023-02-13T01:15:21;49.25;;;44.60;;
54897;SDS011;40800;52.704;6.398;2023-02-13T01:17:47;48.65;;;44.15;;
54897;SDS011;40800;52.704;6.398;2023-02-13T01:20:12;49.03;;;44.40;;
54897;SDS011;40800;52.704;6.398;2023-02-13T01:22:39;50.17;;;45.35;;
54897;SDS011;40800;52.704;6.398;2023-02-13T01:25:05;49.40;;;44.87;;
54897;SDS011;40800;52.704;6.398;2023-02-13T01:27:31;49.33;;;44.95;;
54897;SDS011;40800;52.704;6.398;2023-02-13T01:29:57;49.63;;;44.90;;
54897;SDS011;40800;52.704;6.398;2023-02-13T01:32:23;49.65;;;45.13;;
54897;SDS011;40800;52.704;6.398;2023-02-13T01:34:49;49.40;;;44.63;;
54897;SDS011;40800;52.704;6.398;2023-02-13T01:37:15;49.45;;;45.00;;
54897;SDS011;40800;52.704;6.398;2023-02-13T01:39:41;48.85;;;44.28;;
54897;SDS011;40800;52.704;6.398;2023-02-13T01:42:13;47.90;;;43.45;;
54897;SDS011;40800;52.704;6.398;2023-02-13T01:47:15;49.22;;;44.60;;
54897;SDS011;40800;52.704;6.398;2023-02-13T01:49:46;47.65;;;43.05;;
54897;SDS011;40800;52.704;6.398;2023-02-13T01:52:13;48.70;;;44.03;;
54897;SDS011;40800;52.704;6.398;2023-02-13T01:54:40;47.78;;;43.47;;
54897;SDS011;40800;52.704;6.398;2023-02-13T01:57:11;45.15;;;41.13;;
54897;SDS011;40800;52.704;6.398;2023-02-13T01:59:55;47.92;;;43.58;;
54897;SDS011;40800;52.704;6.398;2023-02-13T02:02:25;49.53;;;44.72;;
54897;SDS011;40800;52.704;6.398;2023-02-13T02:04:53;49.17;;;44.60;;
54897;SDS011;40800;52.704;6.398;2023-02-13T02:07:23;49.63;;;44.85;;
54897;SDS011;40800;52.704;6.398;2023-02-13T02:09:52;49.20;;;44.60;;
54897;SDS011;40800;52.704;6.398;2023-02-13T02:12:24;49.28;;;44.70;;
54897;SDS011;40800;52.704;6.398;2023-02-13T02:15:14;49.20;;;44.47;;
54897;SDS011;40800;52.704;6.398;2023-02-13T02:17:40;48.70;;;44.43;;
54897;SDS011;40800;52.704;6.398;2023-02-13T02:25:49;50.50;;;45.70;;
54897;SDS011;40800;52.704;6.398;2023-02-13T02:33:58;49.00;;;44.40;;
54897;SDS011;40800;52.704;6.398;2023-02-13T02:39:20;51.22;;;46.45;;
54897;SDS011;40800;52.704;6.398;2023-02-13T02:42:00;51.67;;;46.88;;
54897;SDS011;40800;52.704;6.398;2023-02-13T02:53:27;51.15;;;46.45;;
54897;SDS011;40800;52.704;6.398;2023-02-13T02:56:20;50.03;;;45.33;;
54897;SDS011;40800;52.704;6.398;2023-02-13T02:58:54;52.17;;;47.08;;
54897;SDS011;40800;52.704;6.398;2023-02-13T03:01:44;51.92;;;47.17;;
54897;SDS011;40800;52.704;6.398;2023-02-13T03:04:30;51.53;;;46.63;;
54897;SDS011;40800;52.704;6.398;2023-02-13T03:07:42;51.40;;;46.60;;
54897;SDS011;40800;52.704;6.398;2023-02-13T03:10:12;50.45;;;46.00;;
54897;SDS011;40800;52.704;6.398;2023-02-13T03:13:46;50.40;;;45.70;;
54897;SDS011;40800;52.704;6.398;2023-02-13T03:15:56;53.50;;;48.20;;
54897;SDS011;40800;52.704;6.398;2023-02-13T03:18:43;51.70;;;46.78;;
54897;SDS011;40800;52.704;6.398;2023-02-13T03:33:37;50.97;;;46.13;;
54897;SDS011;40800;52.704;6.398;2023-02-13T03:36:40;49.75;;;45.08;;
54897;SDS011;40800;52.704;6.398;2023-02-13T03:39:52;48.95;;;44.58;;
54897;SDS011;40800;52.704;6.398;2023-02-13T03:42:39;50.60;;;45.85;;
54897;SDS011;40800;52.704;6.398;2023-02-13T03:45:12;53.30;;;48.03;;
54897;SDS011;40800;52.704;6.398;2023-02-13T03:48:02;52.25;;;47.17;;
54897;SDS011;40800;52.704;6.398;2023-02-13T03:50:35;51.55;;;46.65;;
54897;SDS011;40800;52.704;6.398;2023-02-13T03:53:06;50.67;;;45.95;;
54897;SDS011;40800;52.704;6.398;2023-02-13T03:55:35;51.67;;;46.75;;
54897;SDS011;40800;52.704;6.398;2023-02-13T03:58:24;53.50;;;48.63;;
54897;SDS011;40800;52.704;6.398;2023-02-13T04:01:24;50.33;;;45.72;;
54897;SDS011;40800;52.704;6.398;2023-02-13T04:03:56;50.53;;;46.03;;
54897;SDS011;40800;52.704;6.398;2023-02-13T04:08:58;51.05;;;46.13;;
54897;SDS011;40800;52.704;6.398;2023-02-13T04:11:27;50.33;;;45.53;;
54897;SDS011;40800;52.704;6.398;2023-02-13T04:13:55;51.90;;;47.10;;
54897;SDS011;40800;52.704;6.398;2023-02-13T04:16:34;50.13;;;45.45;;
54897;SDS011;40800;52.704;6.398;2023-02-13T04:19:09;50.00;;;45.22;;
54897;SDS011;40800;52.704;6.398;2023-02-13T04:21:36;48.25;;;43.75;;
54897;SDS011;40800;52.704;6.398;2023-02-13T04:26:35;49.20;;;44.90;;
54897;SDS011;40800;52.704;6.398;2023-02-13T04:29:03;47.70;;;43.38;;
54897;SDS011;40800;52.704;6.398;2023-02-13T04:31:29;50.90;;;46.25;;
54897;SDS011;40800;52.704;6.398;2023-02-13T04:33:55;50.38;;;45.80;;
54897;SDS011;40800;52.704;6.398;2023-02-13T04:36:21;49.65;;;45.03;;
54897;SDS011;40800;52.704;6.398;2023-02-13T04:38:47;50.53;;;45.78;;
54897;SDS011;40800;52.704;6.398;2023-02-13T04:41:12;52.15;;;47.45;;
54897;SDS011;40800;52.704;6.398;2023-02-13T04:43:38;50.88;;;46.28;;
54897;SDS011;40800;52.704;6.398;2023-02-13T04:46:04;50.78;;;46.00;;
54897;SDS011;40800;52.704;6.398;2023-02-13T04:48:29;49.85;;;45.25;;
54897;SDS011;40800;52.704;6.398;2023-02-13T04:50:55;50.75;;;46.15;;
54897;SDS011;40800;52.704;6.398;2023-02-13T04:53:20;50.78;;;46.30;;
54897;SDS011;40800;52.704;6.398;2023-02-13T04:55:46;50.88;;;46.22;;
54897;SDS011;40800;52.704;6.398;2023-02-13T04:58:12;50.75;;;46.20;;
54897;SDS011;40800;52.704;6.398;2023-02-13T05:00:38;54.25;;;49.42;;
54897;SDS011;40800;52.704;6.398;2023-02-13T05:03:05;55.45;;;50.72;;
54897;SDS011;40800;52.704;6.398;2023-02-13T05:05:32;57.85;;;53.05;;
54897;SDS011;40800;52.704;6.398;2023-02-13T05:07:58;56.60;;;51.67;;
54897;SDS011;40800;52.704;6.398;2023-02-13T05:10:24;57.05;;;52.10;;
54897;SDS011;40800;52.704;6.398;2023-02-13T05:12:50;55.03;;;50.22;;
54897;SDS011;40800;52.704;6.398;2023-02-13T05:15:15;53.13;;;48.70;;
54897;SDS011;40800;52.704;6.398;2023-02-13T05:17:44;52.92;;;48.33;;
54897;SDS011;40800;52.704;6.398;2023-02-13T05:20:11;53.05;;;48.38;;
54897;SDS011;40800;52.704;6.398;2023-02-13T05:22:37;55.78;;;50.78;;
54897;SDS011;40800;52.704;6.398;2023-02-13T05:25:26;53.05;;;48.42;;
54897;SDS011;40800;52.704;6.398;2023-02-13T05:27:52;55.10;;;50.08;;
54897;SDS011;40800;52.704;6.398;2023-02-13T05:30:18;53.38;;;48.47;;
54897;SDS011;40800;52.704;6.398;2023-02-13T05:32:43;54.42;;;49.40;;
54897;SDS011;40800;52.704;6.398;2023-02-13T05:35:09;55.27;;;50.47;;
54897;SDS011;40800;52.704;6.398;2023-02-13T05:37:35;56.08;;;51.13;;
54897;SDS011;40800;52.704;6.398;2023-02-13T05:40:01;55.13;;;50.53;;
54897;SDS011;40800;52.704;6.398;2023-02-13T05:42:27;58.28;;;53.47;;
54897;SDS011;40800;52.704;6.398;2023-02-13T05:44:52;55.53;;;50.63;;
54897;SDS011;40800;52.704;6.398;2023-02-13T05:47:18;55.80;;;50.90;;
54897;SDS011;40800;52.704;6.398;2023-02-13T05:49:43;54.50;;;49.67;;
54897;SDS011;40800;52.704;6.398;2023-02-13T05:52:09;54.20;;;49.30;;
54897;SDS011;40800;52.704;6.398;2023-02-13T05:54:35;52.92;;;48.17;;
54897;SDS011;40800;52.704;6.398;2023-02-13T05:57:02;52.88;;;48.08;;
54897;SDS011;40800;52.704;6.398;2023-02-13T05:59:28;54.85;;;49.92;;
54897;SDS011;40800;52.704;6.398;2023-02-13T06:01:53;54.30;;;49.35;;
54897;SDS011;40800;52.704;6.398;2023-02-13T06:04:19;54.50;;;49.70;;
54897;SDS011;40800;52.704;6.398;2023-02-13T06:06:45;53.67;;;49.17;;
54897;SDS011;40800;52.704;6.398;2023-02-13T06:09:10;55.05;;;49.95;;
54897;SDS011;40800;52.704;6.398;2023-02-13T06:11:36;54.38;;;49.67;;
54897;SDS011;40800;52.704;6.398;2023-02-13T06:14:01;55.88;;;51.17;;
54897;SDS011;40800;52.704;6.398;2023-02-13T06:16:27;54.33;;;49.60;;
54897;SDS011;40800;52.704;6.398;2023-02-13T06:18:55;53.42;;;48.83;;
54897;SDS011;40800;52.704;6.398;2023-02-13T06:21:20;54.53;;;49.83;;
54897;SDS011;40800;52.704;6.398;2023-02-13T06:23:46;55.58;;;50.83;;
54897;SDS011;40800;52.704;6.398;2023-02-13T06:26:12;56.60;;;51.88;;
54897;SDS011;40800;52.704;6.398;2023-02-13T06:28:38;55.47;;;50.80;;
54897;SDS011;40800;52.704;6.398;2023-02-13T06:31:03;57.88;;;53.08;;
54897;SDS011;40800;52.704;6.398;2023-02-13T06:33:29;58.42;;;53.55;;
54897;SDS011;40800;52.704;6.398;2023-02-13T06:35:55;58.85;;;53.97;;
54897;SDS011;40800;52.704;6.398;2023-02-13T06:38:20;56.28;;;51.40;;
54897;SDS011;40800;52.704;6.398;2023-02-13T06:40:46;58.83;;;53.83;;
54897;SDS011;40800;52.704;6.398;2023-02-13T06:43:13;58.75;;;53.72;;
54897;SDS011;40800;52.704;6.398;2023-02-13T06:45:39;60.95;;;55.85;;
54897;SDS011;40800;52.704;6.398;2023-02-13T06:48:05;57.55;;;52.40;;
54897;SDS011;40800;52.704;6.398;2023-02-13T06:50:30;60.92;;;55.83;;
54897;SDS011;40800;52.704;6.398;2023-02-13T06:52:56;58.58;;;53.50;;
54897;SDS011;40800;52.704;6.398;2023-02-13T06:55:22;56.55;;;51.83;;
54897;SDS011;40800;52.704;6.398;2023-02-13T06:57:48;55.53;;;50.85;;
54897;SDS011;40800;52.704;6.398;2023-02-13T07:00:14;58.75;;;53.75;;
54897;SDS011;40800;52.704;6.398;2023-02-13T07:02:41;57.67;;;52.83;;
54897;SDS011;40800;52.704;6.398;2023-02-13T07:05:08;58.53;;;53.83;;
54897;SDS011;40800;52.704;6.398;2023-02-13T07:10:02;55.80;;;51.20;;
54897;SDS011;40800;52.704;6.398;2023-02-13T07:12:28;56.60;;;51.93;;
54897;SDS011;40800;52.704;6.398;2023-02-13T07:14:53;57.20;;;52.50;;
54897;SDS011;40800;52.704;6.398;2023-02-13T07:17:19;58.33;;;53.50;;
54897;SDS011;40800;52.704;6.398;2023-02-13T07:19:44;58.20;;;53.20;;
54897;SDS011;40800;52.704;6.398;2023-02-13T07:22:10;59.95;;;55.40;;
54897;SDS011;40800;52.704;6.398;2023-02-13T07:24:36;61.00;;;56.08;;
54897;SDS011;40800;52.704;6.398;2023-02-13T07:27:03;56.88;;;51.88;;
54897;SDS011;40800;52.704;6.398;2023-02-13T07:29:29;54.55;;;49.83;;
54897;SDS011;40800;52.704;6.398;2023-02-13T07:31:54;54.05;;;49.20;;
54897;SDS011;40800;52.704;6.398;2023-02-13T07:34:20;55.15;;;50.20;;
54897;SDS011;40800;52.704;6.398;2023-02-13T07:36:45;53.15;;;48.35;;
54897;SDS011;40800;52.704;6.398;2023-02-13T07:39:11;52.53;;;48.00;;
54897;SDS011;40800;52.704;6.398;2023-02-13T07:41:37;53.78;;;48.83;;
54897;SDS011;40800;52.704;6.398;2023-02-13T07:44:02;54.92;;;49.63;;
54897;SDS011;40800;52.704;6.398;2023-02-13T07:46:28;54.78;;;49.72;;
54897;SDS011;40800;52.704;6.398;2023-02-13T07:48:54;52.97;;;48.25;;
54897;SDS011;40800;52.704;6.398;2023-02-13T07:51:20;54.17;;;49.47;;
54897;SDS011;40800;52.704;6.398;2023-02-13T07:53:49;54.67;;;49.78;;
54897;SDS011;40800;52.704;6.398;2023-02-13T07:56:16;54.92;;;49.80;;
54897;SDS011;40800;52.704;6.398;2023-02-13T07:58:41;52.55;;;47.75;;
54897;SDS011;40800;52.704;6.398;2023-02-13T08:01:09;53.25;;;48.53;;
54897;SDS011;40800;52.704;6.398;2023-02-13T08:03:36;54.15;;;49.15;;
54897;SDS011;40800;52.704;6.398;2023-02-13T08:06:02;98.43;;;91.65;;
54897;SDS011;40800;52.704;6.398;2023-02-13T08:08:28;53.38;;;48.58;;
54897;SDS011;40800;52.704;6.398;2023-02-13T08:10:54;53.50;;;48.67;;
54897;SDS011;40800;52.704;6.398;2023-02-13T08:13:39;54.70;;;49.45;;
54897;SDS011;40800;52.704;6.398;2023-02-13T08:16:05;57.40;;;52.58;;
54897;SDS011;40800;52.704;6.398;2023-02-13T08:18:31;52.88;;;47.95;;
54897;SDS011;40800;52.704;6.398;2023-02-13T08:20:57;53.03;;;48.20;;
54897;SDS011;40800;52.704;6.398;2023-02-13T08:23:22;54.38;;;49.08;;
54897;SDS011;40800;52.704;6.398;2023-02-13T08:25:48;53.05;;;48.15;;
54897;SDS011;40800;52.704;6.398;2023-02-13T08:28:14;52.75;;;48.03;;
54897;SDS011;40800;52.704;6.398;2023-02-13T08:30:40;53.20;;;48.25;;
54897;SDS011;40800;52.704;6.398;2023-02-13T08:33:06;52.10;;;47.42;;
54897;SDS011;40800;52.704;6.398;2023-02-13T08:35:32;52.60;;;47.72;;
54897;SDS011;40800;52.704;6.398;2023-02-13T08:38:01;51.33;;;46.67;;
54897;SDS011;40800;52.704;6.398;2023-02-13T08:40:30;51.08;;;46.40;;
54897;SDS011;40800;52.704;6.398;2023-02-13T08:43:00;52.35;;;47.58;;
54897;SDS011;40800;52.704;6.398;2023-02-13T08:45:26;53.83;;;48.75;;
54897;SDS011;40800;52.704;6.398;2023-02-13T08:47:56;51.28;;;46.83;;
54897;SDS011;40800;52.704;6.398;2023-02-13T08:50:22;53.22;;;48.42;;
54897;SDS011;40800;52.704;6.398;2023-02-13T08:52:47;51.28;;;46.78;;
54897;SDS011;40800;52.704;6.398;2023-02-13T08:55:13;51.35;;;46.88;;
54897;SDS011;40800;52.704;6.398;2023-02-13T08:57:39;52.03;;;47.35;;
54897;SDS011;40800;52.704;6.398;2023-02-13T09:00:04;50.88;;;46.17;;
54897;SDS011;40800;52.704;6.398;2023-02-13T09:02:30;50.57;;;46.03;;
54897;SDS011;40800;52.704;6.398;2023-02-13T09:04:56;51.47;;;46.92;;
54897;SDS011;40800;52.704;6.398;2023-02-13T09:07:21;49.58;;;45.15;;
54897;SDS011;40800;52.704;6.398;2023-02-13T09:09:47;51.53;;;46.92;;
54897;SDS011;40800;52.704;6.398;2023-02-13T09:12:13;51.63;;;46.83;;
54897;SDS011;40800;52.704;6.398;2023-02-13T09:14:38;52.45;;;47.55;;
54897;SDS011;40800;52.704;6.398;2023-02-13T09:17:04;51.78;;;47.05;;
54897;SDS011;40800;52.704;6.398;2023-02-13T09:19:30;49.60;;;45.00;;
54897;SDS011;40800;52.704;6.398;2023-02-13T09:21:56;49.72;;;45.35;;
54897;SDS011;40800;52.704;6.398;2023-02-13T09:24:21;49.80;;;45.17;;
54897;SDS011;40800;52.704;6.398;2023-02-13T09:26:47;50.30;;;45.78;;
54897;SDS011;40800;52.704;6.398;2023-02-13T09:29:12;50.22;;;45.80;;
54897;SDS011;40800;52.704;6.398;2023-02-13T09:31:38;49.88;;;45.40;;
54897;SDS011;40800;52.704;6.398;2023-02-13T09:34:04;49.45;;;45.20;;
54897;SDS011;40800;52.704;6.398;2023-02-13T09:36:29;50.95;;;46.45;;
54897;SDS011;40800;52.704;6.398;2023-02-13T09:41:24;51.78;;;47.00;;
54897;SDS011;40800;52.704;6.398;2023-02-13T09:43:54;51.38;;;46.67;;
54897;SDS011;40800;52.704;6.398;2023-02-13T09:46:58;52.75;;;48.00;;
54897;SDS011;40800;52.704;6.398;2023-02-13T09:49:29;52.35;;;47.75;;
54897;SDS011;40800;52.704;6.398;2023-02-13T09:51:57;53.85;;;49.05;;
54897;SDS011;40800;52.704;6.398;2023-02-13T09:54:23;54.97;;;50.00;;
54897;SDS011;40800;52.704;6.398;2023-02-13T09:57:01;55.08;;;50.20;;
54897;SDS011;40800;52.704;6.398;2023-02-13T10:02:13;54.25;;;49.25;;
54897;SDS011;40800;52.704;6.398;2023-02-13T10:07:43;55.28;;;50.33;;
54897;SDS011;40800;52.704;6.398;2023-02-13T10:16:24;59.03;;;53.67;;
54897;SDS011;40800;52.704;6.398;2023-02-13T10:19:16;60.17;;;54.40;;
54897;SDS011;40800;52.704;6.398;2023-02-13T10:21:41;59.85;;;54.38;;
54897;SDS011;40800;52.704;6.398;2023-02-13T10:35:25;56.75;;;51.63;;
54897;SDS011;40800;52.704;6.398;2023-02-13T10:37:54;55.13;;;49.92;;
54897;SDS011;40800;52.704;6.398;2023-02-13T10:40:23;54.88;;;50.05;;
54897;SDS011;40800;52.704;6.398;2023-02-13T10:43:02;56.10;;;51.00;;
54897;SDS011;40800;52.704;6.398;2023-02-13T10:48:32;54.67;;;49.70;;
54897;SDS011;40800;52.704;6.398;2023-02-13T10:53:53;56.30;;;51.10;;
54897;SDS011;40800;52.704;6.398;2023-02-13T10:56:34;52.50;;;47.80;;
54897;SDS011;40800;52.704;6.398;2023-02-13T10:59:13;54.40;;;49.25;;
54897;SDS011;40800;52.704;6.398;2023-02-13T11:01:53;52.50;;;47.72;;
54897;SDS011;40800;52.704;6.398;2023-02-13T11:04:21;54.15;;;49.25;;
54897;SDS011;40800;52.704;6.398;2023-02-13T11:07:10;53.25;;;48.38;;
54897;SDS011;40800;52.704;6.398;2023-02-13T11:09:39;53.70;;;48.78;;
54897;SDS011;40800;52.704;6.398;2023-02-13T11:15:02;54.35;;;49.28;;
54897;SDS011;40800;52.704;6.398;2023-02-13T11:17:30;53.38;;;48.47;;
54897;SDS011;40800;52.704;6.398;2023-02-13T11:20:00;54.42;;;49.05;;
54897;SDS011;40800;52.704;6.398;2023-02-13T11:22:38;55.80;;;50.38;;
54897;SDS011;40800;52.704;6.398;2023-02-13T11:25:16;53.40;;;48.25;;
54897;SDS011;40800;52.704;6.398;2023-02-13T11:27:42;51.80;;;46.78;;
54897;SDS011;40800;52.704;6.398;2023-02-13T11:30:31;51.95;;;46.75;;
54897;SDS011;40800;52.704;6.398;2023-02-13T11:32:57;52.03;;;47.00;;
54897;SDS011;40800;52.704;6.398;2023-02-13T11:35:26;49.88;;;44.90;;
54897;SDS011;40800;52.704;6.398;2023-02-13T11:38:09;48.15;;;43.42;;
54897;SDS011;40800;52.704;6.398;2023-02-13T11:40:52;50.00;;;45.00;;
54897;SDS011;40800;52.704;6.398;2023-02-13T11:43:32;47.50;;;43.00;;
54897;SDS011;40800;52.704;6.398;2023-02-13T11:46:06;47.00;;;42.50;;
54897;SDS011;40800;52.704;6.398;2023-02-13T11:48:39;47.03;;;42.53;;
54897;SDS011;40800;52.704;6.398;2023-02-13T11:51:06;47.17;;;42.63;;
54897;SDS011;40800;52.704;6.398;2023-02-13T11:53:36;46.38;;;41.60;;
54897;SDS011;40800;52.704;6.398;2023-02-13T11:56:11;48.72;;;40.50;;
54897;SDS011;40800;52.704;6.398;2023-02-13T11:58:38;48.17;;;40.00;;
54897;SDS011;40800;52.704;6.398;2023-02-13T12:04:05;42.80;;;38.53;;
54897;SDS011;40800;52.704;6.398;2023-02-13T12:06:40;41.95;;;37.47;;
54897;SDS011;40800;52.704;6.398;2023-02-13T12:09:12;42.58;;;37.75;;
54897;SDS011;40800;52.704;6.398;2023-02-13T12:11:41;40.28;;;36.17;;
54897;SDS011;40800;52.704;6.398;2023-02-13T12:14:15;41.05;;;36.60;;
54897;SDS011;40800;52.704;6.398;2023-02-13T12:16:45;38.15;;;34.30;;
54897;SDS011;40800;52.704;6.398;2023-02-13T12:19:24;39.10;;;34.85;;
54897;SDS011;40800;52.704;6.398;2023-02-13T12:27:43;37.65;;;33.85;;
54897;SDS011;40800;52.704;6.398;2023-02-13T12:30:38;37.28;;;33.42;;
54897;SDS011;40800;52.704;6.398;2023-02-13T12:35:49;36.70;;;33.10;;
54897;SDS011;40800;52.704;6.398;2023-02-13T12:38:30;35.38;;;31.98;;
54897;SDS011;40800;52.704;6.398;2023-02-13T12:41:43;37.45;;;33.65;;
54897;SDS011;40800;52.704;6.398;2023-02-13T12:54:48;38.85;;;34.33;;
54897;SDS011;40800;52.704;6.398;2023-02-13T12:57:47;38.38;;;34.25;;
54897;SDS011;40800;52.704;6.398;2023-02-13T13:19:21;39.72;;;35.63;;
54897;SDS011;40800;52.704;6.398;2023-02-13T13:22:12;42.15;;;38.05;;
54897;SDS011;40800;52.704;6.398;2023-02-13T13:24:49;40.67;;;36.67;;
54897;SDS011;40800;52.704;6.398;2023-02-13T13:27:29;40.67;;;36.65;;
54897;SDS011;40800;52.704;6.398;2023-02-13T13:30:05;41.88;;;37.72;;
54897;SDS011;40800;52.704;6.398;2023-02-13T13:35:57;40.47;;;36.35;;
54897;SDS011;40800;52.704;6.398;2023-02-13T13:41:31;39.20;;;35.30;;
54897;SDS011;40800;52.704;6.398;2023-02-13T13:44:16;38.40;;;34.55;;
54897;SDS011;40800;52.704;6.398;2023-02-13T13:47:01;39.58;;;35.58;;
54897;SDS011;40800;52.704;6.398;2023-02-13T13:49:43;39.65;;;35.75;;
54897;SDS011;40800;52.704;6.398;2023-02-13T13:52:20;41.15;;;36.88;;
54897;SDS011;40800;52.704;6.398;2023-02-13T13:54:46;42.40;;;38.10;;
54897;SDS011;40800;52.704;6.398;2023-02-13T13:57:19;41.20;;;37.03;;
54897;SDS011;40800;52.704;6.398;2023-02-13T14:05:09;40.08;;;35.88;;
54897;SDS011;40800;52.704;6.398;2023-02-13T14:07:50;41.15;;;37.05;;
54897;SDS011;40800;52.704;6.398;2023-02-13T14:23:06;41.78;;;37.45;;
54897;SDS011;40800;52.704;6.398;2023-02-13T14:25:45;41.78;;;37.58;;
54897;SDS011;40800;52.704;6.398;2023-02-13T14:28:22;40.30;;;36.17;;
54897;SDS011;40800;52.704;6.398;2023-02-13T14:33:23;39.97;;;36.08;;
54897;SDS011;40800;52.704;6.398;2023-02-13T14:35:58;40.17;;;36.17;;
54897;SDS011;40800;52.704;6.398;2023-02-13T14:38:24;41.22;;;37.13;;
54897;SDS011;40800;52.704;6.398;2023-02-13T14:40:51;39.97;;;35.97;;
54897;SDS011;40800;52.704;6.398;2023-02-13T14:43:20;40.90;;;36.85;;
54897;SDS011;40800;52.704;6.398;2023-02-13T14:51:55;39.17;;;35.38;;
54897;SDS011;40800;52.704;6.398;2023-02-13T14:54:37;35.92;;;32.53;;
54897;SDS011;40800;52.704;6.398;2023-02-13T14:57:16;35.38;;;31.88;;
54897;SDS011;40800;52.704;6.398;2023-02-13T15:00:06;36.00;;;32.28;;
54897;SDS011;40800;52.704;6.398;2023-02-13T15:02:44;35.22;;;31.85;;
54897;SDS011;40800;52.704;6.398;2023-02-13T15:05:14;35.78;;;32.10;;
54897;SDS011;40800;52.704;6.398;2023-02-13T15:07:51;35.13;;;31.75;;
54897;SDS011;40800;52.704;6.398;2023-02-13T15:13:15;32.90;;;29.80;;
54897;SDS011;40800;52.704;6.398;2023-02-13T15:16:01;33.28;;;30.08;;
54897;SDS011;40800;52.704;6.398;2023-02-13T15:18:35;34.40;;;31.05;;
54897;SDS011;40800;52.704;6.398;2023-02-13T15:21:08;33.40;;;30.17;;
54897;SDS011;40800;52.704;6.398;2023-02-13T15:23:40;33.92;;;30.63;;
54897;SDS011;40800;52.704;6.398;2023-02-13T15:26:06;34.65;;;31.25;;
54897;SDS011;40800;52.704;6.398;2023-02-13T15:28:33;33.05;;;29.92;;
54897;SDS011;40800;52.704;6.398;2023-02-13T15:33:34;33.33;;;30.13;;
54897;SDS011;40800;52.704;6.398;2023-02-13T15:36:12;33.88;;;30.67;;
54897;SDS011;40800;52.704;6.398;2023-02-13T15:38:44;32.55;;;29.45;;
54897;SDS011;40800;52.704;6.398;2023-02-13T15:41:16;32.50;;;29.40;;
54897;SDS011;40800;52.704;6.398;2023-02-13T15:43:46;33.80;;;30.50;;
54897;SDS011;40800;52.704;6.398;2023-02-13T15:46:20;34.97;;;31.58;;
54897;SDS011;40800;52.704;6.398;2023-02-13T15:48:51;34.88;;;31.48;;
54897;SDS011;40800;52.704;6.398;2023-02-13T15:53:54;34.78;;;31.48;;
54897;SDS011;40800;52.704;6.398;2023-02-13T15:56:43;34.78;;;31.33;;
54897;SDS011;40800;52.704;6.398;2023-02-13T15:59:09;34.63;;;31.33;;
54897;SDS011;40800;52.704;6.398;2023-02-13T16:01:36;36.30;;;32.72;;
54897;SDS011;40800;52.704;6.398;2023-02-13T16:06:30;35.97;;;32.42;;
54897;SDS011;40800;52.704;6.398;2023-02-13T16:08:58;35.78;;;32.30;;
54897;SDS011;40800;52.704;6.398;2023-02-13T16:11:28;35.47;;;31.95;;
54897;SDS011;40800;52.704;6.398;2023-02-13T16:14:15;35.97;;;32.60;;
54897;SDS011;40800;52.704;6.398;2023-02-13T16:19:24;36.55;;;33.10;;
54897;SDS011;40800;52.704;6.398;2023-02-13T16:21:52;36.35;;;32.60;;
54897;SDS011;40800;52.704;6.398;2023-02-13T16:24:20;34.97;;;31.52;;
54897;SDS011;40800;52.704;6.398;2023-02-13T16:26:47;34.28;;;30.98;;
54897;SDS011;40800;52.704;6.398;2023-02-13T16:29:18;35.10;;;31.60;;
54897;SDS011;40800;52.704;6.398;2023-02-13T16:31:46;33.92;;;30.83;;
54897;SDS011;40800;52.704;6.398;2023-02-13T16:34:14;33.65;;;30.48;;
54897;SDS011;40800;52.704;6.398;2023-02-13T16:36:53;34.80;;;31.48;;
54897;SDS011;40800;52.704;6.398;2023-02-13T16:39:20;33.33;;;30.17;;
54897;SDS011;40800;52.704;6.398;2023-02-13T16:41:54;32.63;;;29.63;;
54897;SDS011;40800;52.704;6.398;2023-02-13T16:44:21;32.92;;;29.92;;
54897;SDS011;40800;52.704;6.398;2023-02-13T16:46:56;34.70;;;31.15;;
54897;SDS011;40800;52.704;6.398;2023-02-13T16:49:32;83.78;;;32.50;;
54897;SDS011;40800;52.704;6.398;2023-02-13T16:52:07;52.25;;;31.05;;
54897;SDS011;40800;52.704;6.398;2023-02-13T16:54:45;43.03;;;31.15;;
54897;SDS011;40800;52.704;6.398;2023-02-13T17:02:52;34.72;;;30.65;;
54897;SDS011;40800;52.704;6.398;2023-02-13T17:07:48;32.95;;;28.15;;
54897;SDS011;40800;52.704;6.398;2023-02-13T17:12:58;33.30;;;28.38;;
54897;SDS011;40800;52.704;6.398;2023-02-13T17:15:27;29.55;;;26.50;;
54897;SDS011;40800;52.704;6.398;2023-02-13T17:17:54;32.78;;;29.27;;
54897;SDS011;40800;52.704;6.398;2023-02-13T17:20:24;33.05;;;29.60;;
54897;SDS011;40800;52.704;6.398;2023-02-13T17:22:52;32.78;;;29.50;;
54897;SDS011;40800;52.704;6.398;2023-02-13T17:25:20;34.25;;;30.65;;
54897;SDS011;40800;52.704;6.398;2023-02-13T17:27:54;36.08;;;32.35;;
54897;SDS011;40800;52.704;6.398;2023-02-13T17:30:23;35.65;;;32.05;;
54897;SDS011;40800;52.704;6.398;2023-02-13T17:32:53;34.58;;;31.10;;
54897;SDS011;40800;52.704;6.398;2023-02-13T17:35:30;33.65;;;30.35;;
54897;SDS011;40800;52.704;6.398;2023-02-13T17:37:56;31.70;;;28.60;;
54897;SDS011;40800;52.704;6.398;2023-02-13T17:40:22;31.30;;;28.33;;
54897;SDS011;40800;52.704;6.398;2023-02-13T17:42:51;32.13;;;28.92;;